West Point, VA (23181)

4:36 PM EST on December 05, 2016 (GMT -0500)
APRSWXNET | | Change Station

Elev 19 ft 37.57 °N, 76.80 °W | Updated 22 minutes ago

Clear
Clear
50 °F
Feels Like 50 °F
N
0
Wind Variable Wind from NW
Gusts 0.0 mph

Today
High -- | Low -- °F
--% Chance of Precip.
Yesterday
High -- | Low -- °F
Precip. -- in
Pressure 30.06 in
Visibility 10.0 miles
Clouds Clear
Dew Point 44 °F
Humidity 80%
Rainfall in
Snow Depth Not available.
7:07 AM 4:48 PM
Waxing Crescent, 35% visible
METAR KFYJ 052115Z AUTO 35003KT 10SM CLR 11/04 A3006 RMK AO2 T01060040
Pressure 30.06 in
Visibility 10.0 miles
Clouds Clear
Dew Point 44 °F
Humidity 80%
Rainfall in
Snow Depth Not available.
7:07 AM 4:48 PM
Waxing Crescent, 35% visible
METAR KFYJ 052115Z AUTO 35003KT 10SM CLR 11/04 A3006 RMK AO2 T01060040

10-Day Weather Forecast

Almanac

Astronomy

Dec. 05, 2016 Rise Set
Actual Time
Civil Twilight
Nautical Twilight
Astronomical Twilight
Moon
Length of Visible Light
Length of Day
Tomorrow will be .
, % of the Moon is Illuminated

Today's Extremes

State Highs State Lows

Community

WunderPhotos

Upload Photos

1,955,863 photos uploaded!

WunderBlog® & News

Nearby

Air Quality

  Air Quality AQ Index Pollutant
Not available.

Snow Depth

Station Depth Elevation

Earthquake Activity

City Distance Mag. Time & Date
Minimum magnitude displayed is 2.5.

Coastal Water Temperatures

Place Temperature

Stations

Nearby Weather Stations

Station Location Temp. Windchill Dew Point Humidity Wind Precip. Elev Updated Type
                   

Watches & Warnings

There are currently no watches in effect.